Time;durP1;ratioP1;P1;durP2;ratioP2;P2;SDS_P1;SDS_P2;PMS_P1;PMS_P2;Temp;Humidity;BMP_temperature;BMP_pressure;BME280_temperature;BME280_humidity;BME280_pressure;Samples;Min_cycle;Max_cycle;Signal;HPM_P1;HPM_P2
2022/05/19 00:02:25;;;;;;;5.90;2.17;;;;;;;17.45;39.56;100366.38;5041242;28;19917;-58
2022/05/19 00:04:55;;;;;;;7.63;2.10;;;;;;;17.61;38.66;100372.69;5036794;28;20292;-57
2022/05/19 00:07:26;;;;;;;5.90;2.03;;;;;;;17.56;38.08;100368.53;5036734;28;20495;-57
2022/05/19 00:09:56;;;;;;;5.43;2.07;;;;;;;17.58;36.30;100372.84;5036524;28;20287;-57
2022/05/19 00:12:28;;;;;;;5.33;1.70;;;;;;;17.69;36.51;100378.50;5043684;28;20393;-57
2022/05/19 00:14:59;;;;;;;32.00;3.60;;;;;;;17.75;37.19;100374.75;5036547;28;20343;-56
2022/05/19 00:17:29;;;;;;;2.97;1.53;;;;;;;17.63;36.70;100373.50;5036385;28;20330;-56
2022/05/19 00:20:00;;;;;;;5.70;2.00;;;;;;;17.63;35.87;100376.13;5036755;28;20288;-55
2022/05/19 00:22:30;;;;;;;4.40;1.73;;;;;;;17.67;36.48;100376.84;5037871;28;20288;-57
2022/05/19 00:25:01;;;;;;;16.33;2.17;;;;;;;17.77;34.10;100378.19;5036672;28;20458;-57
2022/05/19 00:27:33;;;;;;;6.70;1.80;;;;;;;17.84;34.46;100376.97;5036421;28;20449;-56
2022/05/19 00:30:04;;;;;;;3.57;1.40;;;;;;;17.97;33.42;100368.50;5036474;28;20288;-56
2022/05/19 00:32:34;;;;;;;5.33;1.40;;;;;;;18.04;33.07;100365.50;5048003;28;20291;-56
2022/05/19 00:35:05;;;;;;;4.93;1.83;;;;;;;18.19;33.97;100363.09;5056662;28;20303;-57
2022/05/19 00:37:36;;;;;;;2.67;1.30;;;;;;;18.42;34.97;100328.50;5060567;28;20641;-56
2022/05/19 00:40:08;;;;;;;3.83;1.40;;;;;;;18.74;31.80;100360.47;5060285;28;20505;-56
2022/05/19 00:42:46;;;;;;;3.13;1.27;;;;;;;18.76;31.94;100353.34;5040425;28;20296;-56
2022/05/19 00:45:20;;;;;;;4.47;1.10;;;;;;;19.16;31.74;100346.91;5040211;28;20358;-56
2022/05/19 00:47:54;;;;;;;2.17;1.20;;;;;;;19.48;32.32;100346.22;5040460;28;20280;-57
2022/05/19 00:50:30;;;;;;;2.60;1.17;;;;;;;19.55;30.93;100347.63;5040028;28;20299;-57
2022/05/19 00:53:08;;;;;;;1.90;0.87;;;;;;;19.42;27.09;100341.22;5059160;28;20299;-55
2022/05/19 00:55:43;;;;;;;3.72;1.00;;;;;;;19.08;26.61;100342.97;5060003;28;20288;-56
2022/05/19 00:58:19;;;;;;;6.03;1.47;;;;;;;19.07;29.47;100335.94;5059930;28;20377;-57
2022/05/19 01:00:50;;;;;;;3.57;1.23;;;;;;;18.92;28.31;100338.44;5054610;28;20304;-56
2022/05/19 01:03:21;;;;;;;3.50;1.40;;;;;;;19.16;33.05;100340.78;5059971;28;20327;-56
2022/05/19 01:05:55;;;;;;;4.87;1.60;;;;;;;19.42;32.91;100335.94;5059955;28;20337;-57
2022/05/19 01:08:30;;;;;;;4.50;1.40;;;;;;;19.79;34.14;100332.22;5059696;28;20287;-57
2022/05/19 01:11:03;;;;;;;3.63;1.30;;;;;;;20.02;34.17;100336.31;5042981;28;20498;-56
2022/05/19 01:13:35;;;;;;;6.53;1.60;;;;;;;20.21;33.39;100331.69;5039722;28;20280;-57
2022/05/19 01:16:08;;;;;;;4.63;1.50;;;;;;;20.08;30.19;100333.31;5039796;28;20347;-57
2022/05/19 01:18:39;;;;;;;9.63;1.57;;;;;;;19.71;31.00;100327.34;5039547;28;20272;-55
2022/05/19 01:21:11;;;;;;;9.20;1.43;;;;;;;19.54;29.93;100329.97;5047117;28;20637;-55
2022/05/19 01:23:51;;;;;;;2.90;1.10;;;;;;;19.38;26.87;100327.28;5044816;28;20276;-55
2022/05/19 01:26:31;;;;;;;2.67;0.97;;;;;;;19.49;26.90;100332.88;5039652;28;20311;-55
2022/05/19 01:29:03;;;;;;;13.30;1.33;;;;;;;19.57;27.63;100330.69;5039277;28;20276;-55
2022/05/19 01:31:36;;;;;;;7.07;1.10;;;;;;;19.49;26.40;100321.41;5049395;28;20303;-56
2022/05/19 01:34:09;;;;;;;2.10;0.97;;;;;;;19.55;27.55;100321.13;5059378;28;20337;-54
2022/05/19 01:36:40;;;;;;;5.60;0.80;;;;;;;19.75;26.95;100323.59;5059285;28;20287;-56
2022/05/19 01:39:12;;;;;;;1.47;0.80;;;;;;;19.66;25.16;100317.88;5059232;28;20294;-56
2022/05/19 01:41:52;;;;;;;4.87;1.23;;;;;;;19.59;26.41;100314.69;5054329;28;20299;-56
2022/05/19 01:44:36;;;;;;;9.93;1.00;;;;;;;19.88;27.23;100313.19;5039520;28;20334;-56
2022/05/19 01:47:11;;;;;;;6.50;0.97;;;;;;;20.04;26.12;100314.06;5038435;28;20315;-55
2022/05/19 01:49:48;;;;;;;5.00;1.40;;;;;;;19.99;26.63;100304.63;5039047;28;20296;-56
2022/05/19 01:52:25;;;;;;;2.37;0.93;;;;;;;20.00;24.87;100301.06;5048468;28;20614;-56
2022/05/19 01:55:03;;;;;;;4.43;1.23;;;;;;;19.82;24.98;100293.16;5040849;28;20299;-58
2022/05/19 01:57:38;;;;;;;1.80;1.00;;;;;;;19.93;25.80;100302.31;5050333;28;20315;-57
2022/05/19 02:00:14;;;;;;;2.53;1.07;;;;;;;19.97;24.43;100291.47;5041107;28;20346;-56
2022/05/19 02:02:51;;;;;;;1.97;1.10;;;;;;;19.70;23.20;100293.81;5046218;28;20376;-56
2022/05/19 02:05:31;;;;;;;3.27;1.10;;;;;;;19.81;27.62;100295.88;5046930;28;20503;-55
2022/05/19 02:08:24;;;;;;;12.03;1.47;;;;;;;20.32;26.07;100285.13;5038896;28;20282;-56
2022/05/19 02:11:00;;;;;;;4.93;1.10;;;;;;;20.65;25.32;100280.56;5047020;28;20291;-56
2022/05/19 02:13:33;;;;;;;3.93;1.03;;;;;;;20.37;24.16;100240.63;5041941;28;20875;-55
2022/05/19 02:16:08;;;;;;;3.97;1.00;;;;;;;20.78;27.68;100277.22;5046713;28;20298;-57
2022/05/19 02:18:39;;;;;;;10.50;1.33;;;;;;;20.70;26.08;100267.03;5043066;28;20343;-56
2022/05/19 02:21:11;;;;;;;6.30;1.10;;;;;;;20.79;26.75;100268.28;5041286;28;20594;-57
2022/05/19 02:23:43;;;;;;;3.93;1.20;;;;;;;20.79;24.05;100252.34;5046839;28;20299;-57
2022/05/19 02:26:14;;;;;;;0.97;0.80;;;;;;;20.65;24.34;100251.38;5048520;28;20661;-56
2022/05/19 02:28:49;;;;;;;3.57;1.20;;;;;;;20.29;23.38;100238.38;5048310;28;20284;-57
2022/05/19 02:31:21;;;;;;;4.53;0.93;;;;;;;19.97;25.25;100221.66;5047634;28;20288;-57
2022/05/19 02:33:52;;;;;;;2.33;1.10;;;;;;;20.37;24.88;100246.78;5037394;28;20367;-57
2022/05/19 02:36:22;;;;;;;4.50;1.20;;;;;;;20.71;25.83;100244.84;5047265;28;20303;-56
2022/05/19 02:38:52;;;;;;;17.93;1.40;;;;;;;20.90;25.57;100236.66;5044319;28;20295;-57
2022/05/19 02:41:23;;;;;;;2.23;1.00;;;;;;;21.10;24.84;100231.00;5046750;28;20337;-56
2022/05/19 02:43:53;;;;;;;4.97;1.27;;;;;;;20.86;24.70;100197.94;5048182;28;20288;-59
2022/05/19 02:46:26;;;;;;;4.57;1.27;;;;;;;20.71;23.85;100212.97;5048119;28;20312;-55
2022/05/19 02:48:58;;;;;;;2.93;1.00;;;;;;;20.99;26.73;100216.63;5038657;28;20288;-58
2022/05/19 02:51:30;;;;;;;3.13;1.20;;;;;;;21.10;22.99;100217.69;5045858;28;20290;-57
2022/05/19 02:54:00;;;;;;;1.37;0.90;;;;;;;20.46;23.49;100209.06;5046463;28;20283;-57
2022/05/19 02:56:31;;;;;;;2.87;1.20;;;;;;;20.33;22.37;100215.19;5040431;28;20287;-57
2022/05/19 02:59:01;;;;;;;10.07;2.33;;;;;;;20.42;24.58;100217.34;5040378;28;20337;-57
2022/05/19 03:01:33;;;;;;;8.87;1.10;;;;;;;20.84;25.65;100202.47;5037589;28;20284;-57
2022/05/19 03:04:04;;;;;;;3.10;1.10;;;;;;;21.01;23.28;100197.00;5037586;28;20295;-56
2022/05/19 03:06:35;;;;;;;4.83;1.30;;;;;;;21.24;23.56;100186.75;5041899;28;20303;-56
2022/05/19 03:09:06;;;;;;;4.30;0.90;;;;;;;21.44;23.50;100183.78;5043835;28;20284;-56
2022/05/19 03:11:36;;;;;;;2.70;1.20;;;;;;;21.58;24.06;100188.19;5042344;28;20283;-56
2022/05/19 03:14:07;;;;;;;1.63;1.10;;;;;;;21.77;23.35;100187.91;5043021;28;20284;-56
2022/05/19 03:16:40;;;;;;;33.20;3.13;;;;;;;21.75;23.88;100185.31;5043395;28;20843;-54
2022/05/19 03:19:11;;;;;;;3.73;1.13;;;;;;;21.87;24.01;100177.53;5042453;28;20731;-56
2022/05/19 03:21:42;;;;;;;2.90;1.00;;;;;;;21.82;22.71;100175.16;5042968;28;20299;-56
2022/05/19 03:24:13;;;;;;;3.80;1.17;;;;;;;21.50;21.81;100170.09;5042527;28;20288;-56
2022/05/19 03:26:43;;;;;;;3.13;0.80;;;;;;;21.53;24.05;100143.28;5042623;28;20514;-56
2022/05/19 03:29:14;;;;;;;5.80;1.47;;;;;;;21.52;23.02;100156.72;5041820;28;20349;-56
2022/05/19 03:31:46;;;;;;;4.20;1.20;;;;;;;21.66;23.77;100158.47;5041178;28;20518;-56
2022/05/19 03:34:17;;;;;;;2.50;0.90;;;;;;;21.97;24.76;100152.88;5042202;28;20462;-56
2022/05/19 03:36:49;;;;;;;1.20;0.70;;;;;;;21.83;20.93;100139.63;5042516;28;20330;-56
2022/05/19 03:39:19;;;;;;;1.80;1.20;;;;;;;21.43;20.03;100142.19;5042046;28;20295;-56
2022/05/19 03:41:50;;;;;;;1.73;1.00;;;;;;;21.24;21.25;100142.47;5041353;28;20323;-56
2022/05/19 03:44:21;;;;;;;7.73;1.23;;;;;;;21.30;23.16;100142.06;5042090;28;20338;-56
2022/05/19 03:46:53;;;;;;;1.63;1.00;;;;;;;21.45;23.17;100124.34;5040701;28;20346;-55
2022/05/19 03:49:23;;;;;;;3.30;1.00;;;;;;;21.74;25.24;100132.22;5041798;28;21181;-57
2022/05/19 03:51:54;;;;;;;5.40;1.40;;;;;;;22.08;25.21;100132.69;5042254;28;20283;-56
2022/05/19 03:54:24;;;;;;;2.13;1.00;;;;;;;22.21;24.61;100128.28;5042902;28;20279;-55
2022/05/19 03:56:55;;;;;;;9.57;1.57;;;;;;;22.28;23.92;100124.25;5042590;28;20053;-56
2022/05/19 03:59:25;;;;;;;3.37;1.00;;;;;;;22.52;25.13;100120.91;5042382;28;20287;-56
2022/05/19 04:01:58;;;;;;;3.67;1.03;;;;;;;22.55;23.13;100120.69;5042571;28;20298;-55
2022/05/19 04:04:28;;;;;;;2.60;1.10;;;;;;;22.60;21.73;100107.91;5041397;28;20299;-56
2022/05/19 04:06:59;;;;;;;3.53;1.00;;;;;;;22.37;21.80;100102.34;5041937;28;20299;-56
2022/05/19 04:09:31;;;;;;;2.90;0.90;;;;;;;22.52;22.75;100110.25;5043109;28;20325;-56
2022/05/19 04:12:02;;;;;;;2.80;0.90;;;;;;;22.32;21.47;100093.81;5046808;28;20049;-56
2022/05/19 04:14:33;;;;;;;1.40;0.90;;;;;;;22.10;23.75;100098.84;5046724;28;20053;-56
2022/05/19 04:17:05;;;;;;;1.80;0.90;;;;;;;22.07;23.99;100067.13;5047087;28;20057;-58
2022/05/19 04:19:36;;;;;;;3.97;1.07;;;;;;;22.47;26.14;100093.72;5045920;28;20124;-56
2022/05/19 04:22:07;;;;;;;8.13;1.50;;;;;;;22.61;27.82;100098.94;5045718;28;20049;-56
2022/05/19 04:24:37;;;;;;;8.70;1.83;;;;;;;22.69;27.10;100101.94;5046087;28;20061;-55
2022/05/19 04:27:11;;;;;;;8.07;1.50;;;;;;;22.61;27.24;100109.59;5046358;28;20057;-56
2022/05/19 04:29:41;;;;;;;13.23;2.70;;;;;;;22.49;27.96;100110.44;5046224;28;20045;-56
2022/05/19 04:32:14;;;;;;;6.07;2.30;;;;;;;22.53;28.15;100101.28;5045906;28;20045;-56
2022/05/19 04:34:44;;;;;;;10.23;3.23;;;;;;;22.64;28.82;100108.53;5046382;28;20045;-56
2022/05/19 04:37:15;;;;;;;3.50;1.63;;;;;;;22.59;29.35;100100.88;5046497;28;20240;-56
2022/05/19 04:39:45;;;;;;;10.27;2.27;;;;;;;22.43;29.86;100062.94;5045396;28;20060;-56
2022/05/19 04:42:16;;;;;;;6.40;1.70;;;;;;;22.47;29.26;100110.56;5045404;28;20300;-56
2022/05/19 04:44:46;;;;;;;8.93;5.00;;;;;;;22.35;28.68;100104.25;5045553;28;20052;-57
2022/05/19 04:47:19;;;;;;;4.37;2.70;;;;;;;22.20;28.13;100110.63;5045468;28;20331;-57
2022/05/19 04:49:49;;;;;;;8.07;2.20;;;;;;;22.19;29.01;100095.59;5045420;28;20051;-56
2022/05/19 04:52:21;;;;;;;9.73;1.70;;;;;;;22.12;27.45;100086.31;5046400;28;20119;-56
2022/05/19 04:54:52;;;;;;;8.80;2.10;;;;;;;22.18;28.96;100085.88;5045713;28;20050;-57
2022/05/19 04:57:22;;;;;;;7.93;1.60;;;;;;;22.31;28.90;100092.09;5046791;28;20065;-56
2022/05/19 04:59:53;;;;;;;11.23;2.00;;;;;;;22.23;27.86;100086.44;5046122;28;20437;-57
2022/05/19 05:02:25;;;;;;;5.57;1.70;;;;;;;22.08;28.28;100090.97;5045969;28;20067;-56
2022/05/19 05:04:56;;;;;;;8.93;2.17;;;;;;;21.91;28.31;100084.09;5046084;28;20060;-57
2022/05/19 05:07:26;;;;;;;9.97;1.87;;;;;;;21.85;27.73;100089.84;5046130;28;20053;-56
2022/05/19 05:09:57;;;;;;;13.33;1.93;;;;;;;21.73;29.26;100090.63;5045605;28;20355;-56
2022/05/19 05:12:28;;;;;;;14.67;1.90;;;;;;;21.62;29.74;100099.31;5046333;28;20064;-57
2022/05/19 05:14:58;;;;;;;7.83;2.03;;;;;;;21.29;29.34;100083.69;5046213;28;20049;-56
2022/05/19 05:17:31;;;;;;;6.27;1.60;;;;;;;21.36;30.27;100092.97;5045958;28;20290;-55
2022/05/19 05:20:01;;;;;;;31.63;4.00;;;;;;;21.47;31.06;100085.22;5045867;28;20280;-55
2022/05/19 05:22:34;;;;;;;11.40;2.20;;;;;;;21.54;30.62;100086.53;5043846;28;20279;-56
2022/05/19 05:25:06;;;;;;;25.73;3.77;;;;;;;21.48;29.89;100086.91;5045554;28;20284;-56
2022/05/19 05:27:37;;;;;;;22.03;3.37;;;;;;;21.43;29.98;100089.00;5045772;28;20345;-55
2022/05/19 05:30:08;;;;;;;22.10;6.33;;;;;;;21.50;30.18;100079.69;5045659;28;20740;-56
2022/05/19 05:32:41;;;;;;;13.83;3.60;;;;;;;21.56;30.03;100074.94;5044807;28;20338;-56
2022/05/19 05:35:12;;;;;;;65.23;6.13;;;;;;;21.65;30.08;100077.00;5045517;28;20288;-57
2022/05/19 05:37:43;;;;;;;15.80;3.00;;;;;;;21.56;30.55;100066.97;5045577;28;20374;-54
2022/05/19 05:40:14;;;;;;;19.80;4.10;;;;;;;21.47;29.73;100063.97;5045426;28;20292;-56
2022/05/19 05:42:45;;;;;;;10.50;3.03;;;;;;;21.18;29.89;100079.06;5044635;28;20556;-56
2022/05/19 05:45:16;;;;;;;3.80;1.70;;;;;;;21.11;30.23;100073.28;5045699;28;20308;-57
2022/05/19 05:47:48;;;;;;;20.07;3.80;;;;;;;21.17;30.68;100081.81;5045376;28;20560;-57
2022/05/19 05:50:18;;;;;;;10.30;2.87;;;;;;;21.17;29.49;100082.69;5045087;28;20280;-57
2022/05/19 05:52:49;;;;;;;12.73;2.27;;;;;;;20.99;29.44;100079.41;5045182;28;20339;-55
2022/05/19 05:55:20;;;;;;;4.40;1.77;;;;;;;21.09;30.75;100075.22;5045398;28;20327;-56
2022/05/19 05:57:51;;;;;;;5.43;1.90;;;;;;;21.19;29.51;100077.25;5045314;28;20291;-56
2022/05/19 06:00:22;;;;;;;8.57;1.73;;;;;;;21.19;30.32;100071.94;5044960;28;20285;-56
2022/05/19 06:02:54;;;;;;;15.83;2.23;;;;;;;21.24;29.12;100072.50;5043196;28;20280;-56
2022/05/19 06:05:25;;;;;;;13.03;2.53;;;;;;;21.27;28.95;100078.50;5045118;28;20287;-56
2022/05/19 06:07:56;;;;;;;11.70;2.80;;;;;;;21.13;29.30;100083.81;5043909;28;20682;-57
2022/05/19 06:10:26;;;;;;;7.70;1.73;;;;;;;20.96;29.18;100084.03;5043732;28;20610;-57
2022/05/19 06:12:57;;;;;;;4.03;1.40;;;;;;;20.85;29.21;100082.88;5045063;28;20282;-56
2022/05/19 06:15:27;;;;;;;8.83;1.70;;;;;;;20.55;29.85;100048.47;5044776;28;20303;-55
2022/05/19 06:18:00;;;;;;;12.67;1.97;;;;;;;20.77;29.34;100089.63;5044732;28;20374;-57
2022/05/19 06:20:31;;;;;;;6.57;1.73;;;;;;;20.79;29.25;100061.16;5044313;28;20283;-57
2022/05/19 06:23:03;;;;;;;5.77;2.10;;;;;;;20.60;29.06;100046.38;5044945;28;20337;-56
2022/05/19 06:25:34;;;;;;;5.60;1.97;;;;;;;20.70;29.67;100083.84;5043566;28;20318;-57
2022/05/19 06:28:05;;;;;;;18.00;3.90;;;;;;;20.74;30.12;100068.56;5043100;28;20291;-57
2022/05/19 06:30:35;;;;;;;13.20;2.10;;;;;;;20.73;30.32;100085.47;5043822;28;20291;-56
2022/05/19 06:33:08;;;;;;;5.13;1.60;;;;;;;20.51;30.40;100078.75;5043592;28;20288;-57
2022/05/19 06:35:38;;;;;;;11.83;2.40;;;;;;;20.17;31.12;100080.78;5044424;28;20329;-56
2022/05/19 06:38:09;;;;;;;10.13;2.63;;;;;;;19.82;31.14;100091.66;5044732;28;20288;-56
2022/05/19 06:40:39;;;;;;;10.33;2.10;;;;;;;19.54;31.41;100083.50;5044500;28;20275;-55
2022/05/19 06:43:11;;;;;;;9.43;2.00;;;;;;;19.37;31.79;100053.53;5043388;28;20295;-53
2022/05/19 06:45:43;;;;;;;21.57;2.57;;;;;;;19.53;31.26;100087.13;5043524;28;20303;-56
2022/05/19 06:48:15;;;;;;;7.70;1.77;;;;;;;19.39;31.40;100083.47;5044254;28;20288;-56
2022/05/19 06:50:46;;;;;;;12.53;1.80;;;;;;;19.50;32.20;100084.66;5043220;28;20311;-56
2022/05/19 06:53:33;;;;;;;7.80;2.20;;;;;;;19.69;31.34;100085.31;5043908;28;20291;-56
2022/05/19 06:56:02;;;;;;;11.75;2.70;;;;;;;19.77;31.16;100077.81;5042962;28;20690;-56
2022/05/19 06:58:32;;;;;;;8.57;2.07;;;;;;;19.88;31.00;100085.13;5043193;28;20539;-56
2022/05/19 07:01:03;;;;;;;20.87;14.80;;;;;;;19.91;30.74;100086.75;5044369;28;20276;-57
2022/05/19 07:03:35;;;;;;;23.87;15.63;;;;;;;20.04;31.33;100085.09;5043715;28;20315;-56
2022/05/19 07:06:06;;;;;;;10.67;5.47;;;;;;;20.17;31.04;100085.25;5043298;28;20291;-54
2022/05/19 07:08:38;;;;;;;8.07;3.87;;;;;;;19.75;30.98;100078.84;5043020;28;20300;-57
2022/05/19 07:11:24;;;;;;;11.17;2.90;;;;;;;19.48;31.40;100081.22;5042820;28;20296;-54
2022/05/19 07:13:59;;;;;;;7.15;2.20;;;;;;;19.44;31.54;100053.19;5042920;28;20284;-55
2022/05/19 07:16:31;;;;;;;11.20;2.30;;;;;;;19.58;31.17;100066.50;5043175;28;20394;-56
2022/05/19 07:21:51;;;;;;;9.63;2.10;;;;;;;19.75;31.18;100062.94;5041796;28;20280;-57
2022/05/19 07:24:23;;;;;;;11.40;4.03;;;;;;;19.54;30.38;100041.13;5042817;28;21172;-56
2022/05/19 07:26:55;;;;;;;11.80;6.40;;;;;;;19.42;31.67;100049.75;5043167;28;20358;-57
2022/05/19 07:29:27;;;;;;;7.20;3.00;;;;;;;19.14;31.90;100061.91;5042738;28;20303;-54
2022/05/19 07:32:00;;;;;;;7.70;2.53;;;;;;;19.14;31.34;100051.31;5042187;28;20287;-56
2022/05/19 07:34:34;;;;;;;6.73;2.97;;;;;;;19.08;32.04;100046.34;5042722;28;20302;-54
2022/05/19 07:37:05;;;;;;;12.77;3.67;;;;;;;18.81;32.14;100052.22;5043370;28;20594;-55
2022/05/19 07:39:36;;;;;;;6.80;2.60;;;;;;;18.86;31.61;100060.75;5042388;28;20268;-53
2022/05/19 07:42:07;;;;;;;13.87;3.80;;;;;;;18.38;32.39;99977.75;5043139;28;20318;-54
2022/05/19 07:44:38;;;;;;;48.87;5.13;;;;;;;19.13;32.41;100060.19;5042995;28;20352;-56
2022/05/19 07:47:09;;;;;;;14.67;3.23;;;;;;;19.26;32.56;100061.22;5042481;28;20295;-54
2022/05/19 07:49:41;;;;;;;7.77;2.50;;;;;;;19.12;31.97;100069.06;5041816;28;20304;-56
2022/05/19 07:52:12;;;;;;;11.83;3.80;;;;;;;18.91;32.80;100060.50;5042719;28;20292;-55
2022/05/19 07:54:43;;;;;;;17.00;3.10;;;;;;;18.88;32.73;100066.81;5043355;28;20337;-56
2022/05/19 07:57:14;;;;;;;22.80;4.53;;;;;;;18.77;33.06;100063.91;5042420;28;20299;-54
2022/05/19 07:59:45;;;;;;;54.37;5.23;;;;;;;18.48;32.80;100063.63;5041790;28;20295;-55
2022/05/19 08:02:15;;;;;;;25.83;3.73;;;;;;;18.33;33.15;100053.84;5040001;28;20532;-55
2022/05/19 08:04:48;;;;;;;7.67;2.40;;;;;;;18.27;32.80;100064.72;5041779;28;20287;-55
2022/05/19 08:07:19;;;;;;;12.27;2.57;;;;;;;18.40;33.26;100052.59;5041037;28;20299;-55
2022/05/19 08:15:38;;;;;;;6.13;2.50;;;;;;;18.51;33.38;100058.16;5042805;28;20347;-56
2022/05/19 08:18:27;;;;;;;24.27;2.67;;;;;;;18.61;33.34;100052.38;5040284;28;20669;-55
2022/05/19 08:21:01;;;;;;;17.77;2.23;;;;;;;18.42;33.05;100024.28;5041622;28;20284;-55
2022/05/19 08:23:34;;;;;;;12.33;3.83;;;;;;;18.52;33.20;100053.72;5042919;28;20292;-53
2022/05/19 08:26:08;;;;;;;14.20;2.37;;;;;;;18.44;31.87;100043.53;5041329;28;20304;-55
2022/05/19 08:28:40;;;;;;;7.17;2.20;;;;;;;18.41;32.45;100051.63;5042756;28;20292;-53
2022/05/19 08:31:13;;;;;;;7.77;1.97;;;;;;;18.36;32.24;100040.44;5042087;28;20326;-54
2022/05/19 08:33:46;;;;;;;17.87;3.87;;;;;;;18.27;32.65;100054.13;5040994;28;20365;-52
2022/05/19 08:36:27;;;;;;;9.00;1.97;;;;;;;18.26;32.71;100047.16;5042095;28;20671;-56
2022/05/19 08:38:58;;;;;;;6.43;2.00;;;;;;;18.20;32.98;100058.06;5041713;28;20312;-54
2022/05/19 08:41:34;;;;;;;3.40;1.50;;;;;;;18.07;32.93;100042.81;5042985;28;20288;-55
2022/05/19 08:44:10;;;;;;;9.10;2.30;;;;;;;17.98;32.90;100053.84;5041733;28;20391;-55
2022/05/19 08:46:45;;;;;;;11.23;3.03;;;;;;;17.88;33.62;100057.88;5041258;28;20352;-56
2022/05/19 08:49:20;;;;;;;6.43;2.57;;;;;;;17.74;34.29;100044.47;5041491;28;20503;-57
2022/05/19 08:51:58;;;;;;;12.87;2.70;;;;;;;17.67;34.63;100050.06;5042685;28;20356;-52
2022/05/19 08:54:29;;;;;;;9.80;2.70;;;;;;;17.57;34.12;100043.53;5042136;28;20519;-56
2022/05/19 08:57:06;;;;;;;5.43;2.80;;;;;;;17.33;34.92;100034.13;5044147;28;20517;-54
2022/05/19 08:59:49;;;;;;;8.13;3.00;;;;;;;17.27;35.59;100050.25;5046640;28;20431;-54
2022/05/19 09:02:26;;;;;;;7.17;2.73;;;;;;;17.14;35.74;100045.56;5045532;28;20342;-53
2022/05/19 09:05:09;;;;;;;13.90;3.80;;;;;;;17.07;35.92;100043.28;5045935;28;20288;-55
2022/05/19 09:08:01;;;;;;;11.30;4.13;;;;;;;17.06;36.07;100042.44;5045358;28;20473;-53
2022/05/19 09:10:47;;;;;;;9.57;2.87;;;;;;;17.04;36.39;100039.84;5045632;28;20383;-52
2022/05/19 09:13:28;;;;;;;8.43;2.40;;;;;;;16.85;36.58;100043.41;5046066;28;20539;-53
2022/05/19 09:16:02;;;;;;;7.93;2.67;;;;;;;16.68;37.19;100031.81;5045428;28;20292;-52
2022/05/19 09:18:39;;;;;;;5.83;2.80;;;;;;;16.61;37.38;100030.38;5045881;28;20308;-54
2022/05/19 09:21:11;;;;;;;9.33;5.83;;;;;;;16.57;37.62;100034.94;5044965;28;20662;-52
2022/05/19 09:23:44;;;;;;;4.57;3.00;;;;;;;16.53;38.15;100037.78;5046491;28;20306;-50
2022/05/19 09:26:33;;;;;;;81.83;8.23;;;;;;;16.41;38.61;100043.59;5045369;28;20300;-50
2022/05/19 09:29:09;;;;;;;10.32;3.60;;;;;;;16.29;38.85;100035.28;5045272;28;20365;-54
2022/05/19 09:31:42;;;;;;;9.33;2.93;;;;;;;16.32;38.91;100042.22;5045219;28;20079;-51
2022/05/19 09:34:17;;;;;;;18.37;4.77;;;;;;;16.22;39.03;100033.84;5044383;28;20292;-53
2022/05/19 09:37:04;;;;;;;7.57;3.40;;;;;;;16.16;39.15;100039.38;5048114;28;20272;-52
2022/05/19 09:39:53;;;;;;;12.47;2.70;;;;;;;15.94;39.46;100039.44;5047939;28;20629;-53
2022/05/19 09:42:33;;;;;;;9.13;4.80;;;;;;;15.70;40.09;100038.69;5050742;28;20314;-52
2022/05/19 09:45:11;;;;;;;7.57;5.57;;;;;;;15.48;40.42;100042.16;5045418;28;20329;-54
2022/05/19 09:47:45;;;;;;;10.27;4.63;;;;;;;15.30;40.98;100037.59;5044386;28;20304;-53
2022/05/19 09:50:20;;;;;;;12.63;3.47;;;;;;;15.11;41.19;100032.22;5044688;28;20327;-52
2022/05/19 09:52:51;;;;;;;16.03;4.67;;;;;;;15.02;41.25;100033.41;5047197;28;20315;-49
2022/05/19 09:55:27;;;;;;;12.00;6.13;;;;;;;14.95;41.46;100031.97;5042223;28;20649;-53
2022/05/19 09:58:00;;;;;;;12.77;4.83;;;;;;;14.87;41.14;100049.78;5042487;28;20291;-52
2022/05/19 10:00:44;;;;;;;17.93;6.83;;;;;;;14.64;41.20;100027.84;5043435;28;20296;-54
2022/05/19 10:03:24;;;;;;;8.43;2.90;;;;;;;14.67;40.98;100048.75;5045651;28;20296;-49
2022/05/19 10:05:58;;;;;;;7.47;3.40;;;;;;;14.64;40.89;100048.03;5041919;28;20296;-54
2022/05/19 10:08:39;;;;;;;5.63;3.30;;;;;;;14.55;40.81;100040.47;5043533;28;20641;-51
2022/05/19 10:11:24;;;;;;;10.60;3.90;;;;;;;14.51;40.54;100058.09;5044361;28;20304;-49
2022/05/19 10:14:06;;;;;;;9.70;3.30;;;;;;;14.46;40.80;100058.25;5044351;28;20922;-50
2022/05/19 10:16:50;;;;;;;4.33;1.90;;;;;;;14.45;40.83;100063.56;5044796;28;20506;-53
2022/05/19 10:19:47;;;;;;;6.27;2.20;;;;;;;14.37;40.89;100073.50;5045180;28;20665;-54
2022/05/19 10:22:49;;;;;;;11.80;3.10;;;;;;;14.30;41.20;100069.34;5044863;28;20304;-52
2022/05/19 10:25:41;;;;;;;18.20;2.20;;;;;;;14.22;40.97;100067.84;5044085;28;20279;-49
2022/05/19 10:31:25;;;;;;;10.32;2.20;;;;;;;14.15;41.07;100071.63;5040917;28;20228;-53
2022/05/19 10:34:19;;;;;;;5.10;2.13;;;;;;;14.12;40.98;100076.97;5042693;28;20922;-52
2022/05/19 10:36:55;;;;;;;7.25;2.47;;;;;;;13.75;41.69;100004.69;5043946;28;20048;-53
2022/05/19 10:39:42;;;;;;;6.97;2.08;;;;;;;14.09;41.60;100077.06;5044469;28;20057;-53
2022/05/19 10:42:21;;;;;;;8.95;2.53;;;;;;;14.04;42.23;100089.50;5043908;28;20049;-54
2022/05/19 10:45:28;;;;;;;3.60;2.28;;;;;;;13.96;42.29;100091.53;5046514;28;20092;-52
2022/05/19 10:48:28;;;;;;;2.97;2.15;;;;;;;13.93;42.38;100091.66;4995155;28;20051;-52
2022/05/19 10:51:06;;;;;;;5.70;1.92;;;;;;;13.89;42.71;100103.16;5044051;28;20049;-54
2022/05/19 10:53:57;;;;;;;5.55;2.13;;;;;;;13.86;43.04;100100.63;5044460;28;20128;-54
2022/05/19 10:57:01;;;;;;;8.45;3.50;;;;;;;13.79;43.84;100106.06;5044389;28;20049;-51
2022/05/19 10:59:47;;;;;;;8.65;3.65;;;;;;;13.65;44.78;100110.88;5012307;28;20091;-52
2022/05/19 11:02:43;;;;;;;7.10;2.72;;;;;;;13.50;45.62;100108.75;5043066;28;20063;-52
2022/05/19 11:05:36;;;;;;;16.42;3.75;;;;;;;13.35;46.25;100116.19;5043047;28;20256;-53
2022/05/19 11:08:16;;;;;;;6.38;3.13;;;;;;;13.22;47.18;100106.06;5044212;28;20041;-52
2022/05/19 11:10:53;;;;;;;7.00;3.15;;;;;;;13.12;47.73;100108.09;5043836;28;20056;-49
2022/05/19 11:13:36;;;;;;;9.23;3.58;;;;;;;13.07;48.65;100117.88;5043608;28;20051;-52
2022/05/19 11:16:17;;;;;;;6.32;3.17;;;;;;;12.92;49.37;100112.16;5043898;28;20072;-53
2022/05/19 11:18:56;;;;;;;7.85;3.50;;;;;;;12.82;49.86;100109.84;5043951;28;20049;-49
2022/05/19 11:21:34;;;;;;;10.93;3.47;;;;;;;12.72;50.95;100119.72;5041905;28;20361;-50
2022/05/19 11:24:09;;;;;;;7.82;3.58;;;;;;;12.65;51.53;100107.69;5043655;28;20053;-52
2022/05/19 11:26:45;;;;;;;7.35;3.25;;;;;;;12.55;52.34;100106.22;5042066;28;20049;-52
2022/05/19 11:29:27;;;;;;;9.02;3.83;;;;;;;12.51;52.87;100108.06;5042404;28;20048;-51
2022/05/19 11:32:04;;;;;;;8.77;3.80;;;;;;;12.50;53.24;100099.34;5043475;28;20378;-50
2022/05/19 11:34:42;;;;;;;10.82;4.57;;;;;;;12.41;54.02;100099.59;5042196;28;20080;-51
2022/05/19 11:37:23;;;;;;;13.32;4.63;;;;;;;12.13;54.66;100078.50;5042302;28;20064;-53
2022/05/19 11:40:03;;;;;;;16.20;5.00;;;;;;;12.25;55.66;100095.63;5043190;28;20057;-54
2022/05/19 11:42:42;;;;;;;15.38;5.30;;;;;;;12.16;56.01;100090.66;5043756;28;20045;-52
2022/05/19 11:45:17;;;;;;;16.65;6.03;;;;;;;12.11;56.70;100089.91;5042201;28;20083;-49
2022/05/19 11:56:33;;;;;;;22.92;11.10;;;;;;;11.84;59.34;100076.56;5040797;28;20044;-52
2022/05/19 11:59:09;;;;;;;17.95;7.05;;;;;;;11.77;60.28;100077.63;5042447;28;20209;-54
2022/05/19 12:01:45;;;;;;;21.75;10.00;;;;;;;11.71;61.06;100080.41;5041788;28;20064;-51
2022/05/19 12:04:27;;;;;;;16.35;8.27;;;;;;;11.44;62.20;100061.81;5042443;28;20066;-53
2022/05/19 12:07:08;;;;;;;20.30;9.98;;;;;;;11.51;62.86;100073.88;5042292;28;20286;-50
2022/05/19 12:09:47;;;;;;;21.67;10.05;;;;;;;11.38;63.32;100077.63;5042330;28;20041;-52
2022/05/19 12:12:23;;;;;;;17.98;8.90;;;;;;;11.28;63.87;100078.75;5039317;28;20258;-50
2022/05/19 12:15:15;;;;;;;63.15;10.90;;;;;;;11.26;64.43;100093.59;5041158;28;20667;-53
2022/05/19 12:17:48;;;;;;;14.57;8.25;;;;;;;11.15;65.07;100089.47;5040810;28;20275;-52